Time;durP1;ratioP1;P1;durP2;ratioP2;P2;SDS_P1;SDS_P2;PMS_P1;PMS_P2;Temp;Humidity;BMP_temperature;BMP_pressure;BME280_temperature;BME280_humidity;BME280_pressure;Samples;Min_cycle;Max_cycle;Signal;HPM_P1;HPM_P2
2022/07/14 00:00:00;;;;;;;1.25;0.73;;;;;;;-148.22;100.00;64452.44;5012233;28;20432;-53
2022/07/14 00:02:29;;;;;;;1.38;0.82;;;;;;;-148.22;100.00;64452.44;5026552;28;20570;-58
2022/07/14 00:04:56;;;;;;;2.80;0.93;;;;;;;-148.22;100.00;64452.44;5026517;28;20049;-56
2022/07/14 00:07:22;;;;;;;1.88;0.73;;;;;;;-148.22;100.00;64452.44;5026131;28;20513;-54
2022/07/14 00:09:49;;;;;;;1.52;0.70;;;;;;;-148.22;100.00;64452.44;5021052;28;20046;-56
2022/07/14 00:12:16;;;;;;;1.23;0.80;;;;;;;-148.22;100.00;64452.44;5015573;28;20048;-54
2022/07/14 00:14:42;;;;;;;2.25;0.93;;;;;;;-148.22;100.00;64452.44;5020684;28;20054;-54
2022/07/14 00:17:09;;;;;;;2.10;0.90;;;;;;;-148.22;100.00;64452.44;5006098;28;20427;-57
2022/07/14 00:19:35;;;;;;;0.85;0.52;;;;;;;-148.22;100.00;64452.44;5022222;28;20133;-51
2022/07/14 00:22:02;;;;;;;4.35;0.93;;;;;;;-148.22;100.00;64452.44;5006045;28;20544;-55
2022/07/14 00:24:28;;;;;;;2.00;0.80;;;;;;;-148.22;100.00;64452.44;5021678;28;20049;-56
2022/07/14 00:26:55;;;;;;;1.75;0.70;;;;;;;-148.22;100.00;64452.44;5026153;28;20256;-54
2022/07/14 00:29:22;;;;;;;1.02;0.63;;;;;;;-148.22;100.00;64452.44;5024268;28;20045;-55
2022/07/14 00:31:48;;;;;;;2.63;1.08;;;;;;;-148.22;100.00;64452.44;5007245;28;20038;-56
2022/07/14 00:34:15;;;;;;;2.42;1.30;;;;;;;-148.22;100.00;64452.44;5019684;28;20527;-52
2022/07/14 00:36:45;;;;;;;4.07;0.88;;;;;;;-148.22;100.00;64452.44;5024158;28;20049;-60
2022/07/14 00:39:11;;;;;;;1.38;0.70;;;;;;;-148.22;100.00;64452.44;5026452;28;20049;-55
2022/07/14 00:41:38;;;;;;;2.88;0.90;;;;;;;-148.22;100.00;64452.44;5008770;28;20049;-54
2022/07/14 00:44:04;;;;;;;3.03;1.08;;;;;;;-148.22;100.00;64452.44;5006371;28;20061;-50
2022/07/14 00:46:31;;;;;;;4.03;0.77;;;;;;;-148.22;100.00;64452.44;5008784;28;20053;-53
2022/07/14 00:48:58;;;;;;;2.85;0.70;;;;;;;-148.22;100.00;64452.44;5016409;28;20067;-57
2022/07/14 00:51:24;;;;;;;1.67;0.80;;;;;;;-148.22;100.00;64452.44;5010718;28;20049;-56
2022/07/14 00:53:55;;;;;;;2.15;0.70;;;;;;;-148.22;100.00;64452.44;5014287;28;20053;-55
2022/07/14 00:56:22;;;;;;;2.65;0.70;;;;;;;-148.22;100.00;64452.44;5023695;28;20042;-55
2022/07/14 00:58:49;;;;;;;3.90;0.90;;;;;;;-148.22;100.00;64452.44;5023856;28;20049;-52
2022/07/14 01:01:16;;;;;;;1.67;0.80;;;;;;;-148.22;100.00;64452.44;5005662;28;20653;-53
2022/07/14 01:03:43;;;;;;;2.03;0.88;;;;;;;-148.22;100.00;64452.44;5021812;28;20128;-56
2022/07/14 01:06:09;;;;;;;1.00;0.75;;;;;;;-148.22;100.00;64452.44;5025712;28;20524;-56
2022/07/14 01:08:36;;;;;;;1.25;0.60;;;;;;;-148.22;100.00;64452.44;5022480;28;20033;-51
2022/07/14 01:11:06;;;;;;;2.00;0.73;;;;;;;-148.22;100.00;64452.44;5014135;28;20129;-59
2022/07/14 01:13:35;;;;;;;4.88;0.93;;;;;;;-148.22;100.00;64452.44;5019205;28;20145;-50
2022/07/14 01:16:04;;;;;;;2.28;1.45;;;;;;;-148.22;100.00;64452.44;5018418;28;20052;-56
2022/07/14 01:18:31;;;;;;;3.40;0.90;;;;;;;-148.22;100.00;64452.44;5013302;28;20050;-53
2022/07/14 01:20:58;;;;;;;1.80;0.90;;;;;;;-148.22;100.00;64452.44;5014828;28;20045;-51
2022/07/14 01:23:25;;;;;;;1.55;0.80;;;;;;;-148.22;100.00;64452.44;5005830;28;20042;-54
2022/07/14 01:25:52;;;;;;;3.92;0.90;;;;;;;-148.22;100.00;64452.44;5024483;28;20046;-54
2022/07/14 01:28:19;;;;;;;1.10;0.85;;;;;;;-148.22;100.00;64452.44;5021024;28;20053;-59
2022/07/14 01:30:46;;;;;;;2.03;1.23;;;;;;;-148.22;100.00;64452.44;5034089;28;20068;-53
2022/07/14 01:33:13;;;;;;;2.40;0.80;;;;;;;-148.22;100.00;64452.44;5028068;28;20045;-52
2022/07/14 01:35:40;;;;;;;5.97;0.98;;;;;;;-148.22;100.00;64452.44;5028112;28;20660;-54
2022/07/14 01:38:06;;;;;;;1.80;0.95;;;;;;;-148.22;100.00;64452.44;5026934;28;20327;-49
2022/07/14 01:40:33;;;;;;;3.03;1.00;;;;;;;-148.22;100.00;64452.44;5020154;28;20046;-58
2022/07/14 01:43:00;;;;;;;2.63;1.50;;;;;;;-148.22;100.00;64452.44;5009518;28;20034;-58
2022/07/14 01:45:26;;;;;;;1.10;0.70;;;;;;;-148.22;100.00;64452.44;5007514;28;20057;-54
2022/07/14 01:47:53;;;;;;;1.92;0.88;;;;;;;-148.22;100.00;64452.44;5020099;28;20147;-58
2022/07/14 01:50:20;;;;;;;2.33;0.80;;;;;;;-148.22;100.00;64452.44;5008081;28;20068;-54
2022/07/14 01:52:47;;;;;;;1.95;0.77;;;;;;;-148.22;100.00;64452.44;5020847;28;20045;-55
2022/07/14 01:55:13;;;;;;;1.65;0.50;;;;;;;-148.22;100.00;64452.44;5016088;28;20056;-52
2022/07/14 01:57:42;;;;;;;1.33;0.85;;;;;;;-148.22;100.00;64452.44;5029219;28;20365;-57
2022/07/14 02:00:09;;;;;;;1.58;0.88;;;;;;;-148.22;100.00;64452.44;5010650;28;20513;-55
2022/07/14 02:02:43;;;;;;;1.83;0.90;;;;;;;-148.22;100.00;64452.44;5010071;28;20042;-56
2022/07/14 02:05:10;;;;;;;1.63;0.73;;;;;;;-148.22;100.00;64452.44;5022242;28;20046;-59
2022/07/14 02:07:37;;;;;;;3.22;1.00;;;;;;;-148.22;100.00;64452.44;5017569;28;20033;-53
2022/07/14 02:13:03;;;;;;;3.40;2.22;;;;;;;-148.22;100.00;64452.44;5022272;28;20041;-53
2022/07/14 02:15:29;;;;;;;1.65;0.80;;;;;;;-148.22;100.00;64452.44;5011423;28;20052;-54
2022/07/14 02:17:57;;;;;;;1.27;0.80;;;;;;;-148.22;100.00;64452.44;5019389;28;20057;-57
2022/07/14 02:20:25;;;;;;;4.18;1.10;;;;;;;-148.22;100.00;64452.44;5010420;28;20291;-51
2022/07/14 02:22:51;;;;;;;1.63;1.00;;;;;;;-148.22;100.00;64452.44;5018658;28;20055;-53
2022/07/14 02:25:18;;;;;;;1.42;0.90;;;;;;;-148.22;100.00;64452.44;5021600;28;20081;-53
2022/07/14 02:27:45;;;;;;;1.77;0.90;;;;;;;-148.22;100.00;64452.44;5008534;28;20042;-58
2022/07/14 02:30:11;;;;;;;1.50;0.90;;;;;;;-148.22;100.00;64452.44;5022241;28;20497;-54
2022/07/14 02:32:38;;;;;;;2.70;0.90;;;;;;;-148.22;100.00;64452.44;5018309;28;20044;-49
2022/07/14 02:35:05;;;;;;;3.80;0.88;;;;;;;-148.22;100.00;64452.44;5016708;28;20323;-53
2022/07/14 02:37:32;;;;;;;2.67;1.17;;;;;;;-148.22;100.00;64452.44;5027478;28;20049;-52
2022/07/14 02:40:00;;;;;;;3.72;1.05;;;;;;;-148.22;100.00;64452.44;5031955;28;20398;-57
2022/07/14 02:42:28;;;;;;;5.30;1.25;;;;;;;-148.22;100.00;64452.44;5013019;28;20451;-52
2022/07/14 02:44:55;;;;;;;1.73;0.98;;;;;;;-148.22;100.00;64452.44;5021670;28;20042;-53
2022/07/14 02:47:22;;;;;;;2.55;0.90;;;;;;;-148.22;100.00;64452.44;5023752;28;20049;-52
2022/07/14 02:49:48;;;;;;;2.28;1.05;;;;;;;-148.22;100.00;64452.44;5015444;28;20050;-54
2022/07/14 02:52:16;;;;;;;3.47;1.10;;;;;;;-148.22;100.00;64452.44;5014591;28;20425;-54
2022/07/14 02:54:45;;;;;;;4.38;1.00;;;;;;;-148.22;100.00;64452.44;5037821;28;20068;-54
2022/07/14 02:57:13;;;;;;;1.33;0.80;;;;;;;-148.22;100.00;64452.44;5020948;28;20128;-54
2022/07/14 02:59:43;;;;;;;2.33;0.85;;;;;;;-148.22;100.00;64452.44;5015616;28;20061;-57
2022/07/14 03:02:10;;;;;;;2.53;1.00;;;;;;;-148.22;100.00;64452.44;5024860;28;20064;-59
2022/07/14 03:04:36;;;;;;;2.05;1.00;;;;;;;-148.22;100.00;64452.44;5026328;28;20488;-52
2022/07/14 03:07:03;;;;;;;3.05;1.00;;;;;;;-148.22;100.00;64452.44;5015248;28;20074;-53
2022/07/14 03:09:30;;;;;;;3.22;1.00;;;;;;;-148.22;100.00;64452.44;5024994;28;20060;-57
2022/07/14 03:12:00;;;;;;;4.82;1.20;;;;;;;-148.22;100.00;64452.44;5025283;28;20072;-54
2022/07/14 03:14:27;;;;;;;4.60;1.00;;;;;;;-148.22;100.00;64452.44;5026244;28;20050;-53
2022/07/14 03:16:54;;;;;;;2.88;0.90;;;;;;;-148.22;100.00;64452.44;5023747;28;20045;-53
2022/07/14 03:19:26;;;;;;;2.63;0.90;;;;;;;-148.22;100.00;64452.44;5019570;28;20049;-58
2022/07/14 03:21:53;;;;;;;1.88;1.00;;;;;;;-148.22;100.00;64452.44;5024475;28;20557;-54
2022/07/14 03:24:23;;;;;;;1.88;1.00;;;;;;;-148.22;100.00;64452.44;5006041;28;20137;-54
2022/07/14 03:26:50;;;;;;;1.48;0.90;;;;;;;-148.22;100.00;64452.44;5025005;28;20038;-53
2022/07/14 03:29:17;;;;;;;1.83;1.10;;;;;;;-148.22;100.00;64452.44;5026074;28;20473;-58
2022/07/14 03:31:44;;;;;;;1.60;0.95;;;;;;;-148.22;100.00;64452.44;5018872;28;20054;-54
2022/07/14 03:34:14;;;;;;;2.53;1.10;;;;;;;-148.22;100.00;64452.44;5007807;28;20551;-58
2022/07/14 03:36:43;;;;;;;3.92;1.20;;;;;;;-148.22;100.00;64452.44;5014740;28;20048;-58
2022/07/14 03:39:19;;;;;;;2.72;1.00;;;;;;;-148.22;100.00;64452.44;5007060;28;20279;-55
2022/07/14 03:41:46;;;;;;;1.92;0.88;;;;;;;-148.22;100.00;64452.44;5012951;28;20496;-51
2022/07/14 03:44:12;;;;;;;2.00;1.02;;;;;;;-148.22;100.00;64452.44;5018215;28;20589;-55
2022/07/14 03:46:39;;;;;;;3.53;1.20;;;;;;;-148.22;100.00;64452.44;5017717;28;20057;-59
2022/07/14 03:49:12;;;;;;;3.10;1.00;;;;;;;-148.22;100.00;64452.44;5021091;28;20140;-57
2022/07/14 03:51:41;;;;;;;5.00;1.15;;;;;;;-148.22;100.00;64452.44;5011423;28;20132;-57
2022/07/14 03:54:08;;;;;;;2.35;1.20;;;;;;;-148.22;100.00;64452.44;5008477;28;20058;-54
2022/07/14 03:56:37;;;;;;;6.10;1.48;;;;;;;-148.22;100.00;64452.44;5006183;28;20042;-58
2022/07/14 03:59:04;;;;;;;2.50;1.20;;;;;;;-148.22;100.00;64452.44;5019373;28;20529;-56
2022/07/14 04:01:31;;;;;;;3.22;1.20;;;;;;;-148.22;100.00;64452.44;5020453;28;20044;-57
2022/07/14 04:04:00;;;;;;;3.00;1.20;;;;;;;-148.22;100.00;64452.44;5035009;28;20041;-55
2022/07/14 04:06:27;;;;;;;6.57;1.38;;;;;;;-148.22;100.00;64452.44;5032343;28;20045;-54
2022/07/14 04:08:54;;;;;;;2.28;0.93;;;;;;;-148.22;100.00;64452.44;5018521;28;20141;-55
2022/07/14 04:11:21;;;;;;;3.67;1.10;;;;;;;-148.22;100.00;64452.44;5009593;28;20048;-57
2022/07/14 04:13:48;;;;;;;1.50;0.80;;;;;;;-148.22;100.00;64452.44;5018431;28;20045;-55
2022/07/14 04:16:15;;;;;;;3.40;0.95;;;;;;;-148.22;100.00;64452.44;5017866;28;20516;-52
2022/07/14 04:18:46;;;;;;;;;;;;;;;-148.22;100.00;64452.44;5005385;28;20050;-58
2022/07/14 04:21:13;;;;;;;3.00;1.20;;;;;;;-148.22;100.00;64452.44;5006476;28;19925;-49
2022/07/14 04:23:40;;;;;;;2.50;0.93;;;;;;;-148.22;100.00;64452.44;5006781;28;20424;-51
2022/07/14 04:26:07;;;;;;;4.70;1.30;;;;;;;-148.22;100.00;64452.44;5018700;28;20452;-55
2022/07/14 04:28:34;;;;;;;5.85;1.30;;;;;;;-148.22;100.00;64452.44;5007186;28;20045;-56
2022/07/14 04:31:02;;;;;;;3.55;1.20;;;;;;;-148.22;100.00;64452.44;5006376;28;20428;-55
2022/07/14 04:33:30;;;;;;;2.50;1.00;;;;;;;-148.22;100.00;64452.44;5024464;28;20468;-56
2022/07/14 04:35:56;;;;;;;3.13;1.20;;;;;;;-148.22;100.00;64452.44;5019674;28;20099;-53
2022/07/14 04:38:25;;;;;;;2.05;0.90;;;;;;;-148.22;100.00;64452.44;5023530;28;20052;-57
2022/07/14 04:40:53;;;;;;;2.50;1.20;;;;;;;-148.22;100.00;64452.44;5010786;28;20051;-54
2022/07/14 04:43:22;;;;;;;2.08;0.90;;;;;;;-148.22;100.00;64452.44;5002290;28;20046;-63
2022/07/14 04:45:50;;;;;;;2.13;1.08;;;;;;;-148.22;100.00;64452.44;5018631;28;20103;-63
2022/07/14 04:48:18;;;;;;;6.30;1.30;;;;;;;-148.22;100.00;64452.44;5015548;28;20624;-62
2022/07/14 04:53:34;;;;;;;3.92;1.33;;;;;;;-148.22;100.00;64452.44;5021757;28;20053;-63
2022/07/14 04:56:19;;;;;;;3.22;1.30;;;;;;;-148.22;100.00;64452.44;5013032;28;20064;-63
2022/07/14 04:59:06;;;;;;;3.17;1.10;;;;;;;-148.22;100.00;64452.44;5022171;28;20119;-62
2022/07/14 05:01:33;;;;;;;2.15;1.10;;;;;;;-148.22;100.00;64452.44;5020673;28;20046;-63
2022/07/14 05:04:00;;;;;;;1.75;0.90;;;;;;;-148.22;100.00;64452.44;5006834;28;20048;-68
2022/07/14 05:06:30;;;;;;;3.15;1.02;;;;;;;-148.22;100.00;64452.44;5021595;28;20037;-69
2022/07/14 05:08:57;;;;;;;3.08;1.27;;;;;;;-148.22;100.00;64452.44;5025953;28;20076;-68
2022/07/14 05:11:24;;;;;;;5.90;1.20;;;;;;;-148.22;100.00;64452.44;5013803;28;20132;-68
2022/07/14 05:13:55;;;;;;;3.42;1.10;;;;;;;-148.22;100.00;64452.44;5025670;28;20034;-68
2022/07/14 05:16:22;;;;;;;2.42;1.00;;;;;;;-148.22;100.00;64452.44;5014748;28;20115;-68
2022/07/14 05:18:51;;;;;;;2.47;1.23;;;;;;;-148.22;100.00;64452.44;5012619;28;20049;-68
2022/07/14 05:21:18;;;;;;;2.47;1.13;;;;;;;-148.22;100.00;64452.44;5032712;28;20049;-68
2022/07/14 05:23:45;;;;;;;4.70;1.13;;;;;;;-148.22;100.00;64452.44;5025489;28;20045;-68
2022/07/14 05:26:13;;;;;;;2.85;1.15;;;;;;;-148.22;100.00;64452.44;5010594;28;20134;-68
2022/07/14 05:28:40;;;;;;;2.78;1.00;;;;;;;-148.22;100.00;64452.44;5019258;28;20052;-68
2022/07/14 05:31:07;;;;;;;2.13;1.00;;;;;;;-148.22;100.00;64452.44;5013194;28;20042;-68
2022/07/14 05:33:41;;;;;;;3.55;1.23;;;;;;;-148.22;100.00;64452.44;5025559;28;20069;-68
2022/07/14 05:36:08;;;;;;;2.22;1.10;;;;;;;-148.22;100.00;64452.44;5012632;28;20059;-68
2022/07/14 05:38:35;;;;;;;2.00;1.13;;;;;;;-148.22;100.00;64452.44;5031348;28;20045;-68
2022/07/14 05:41:03;;;;;;;3.45;1.17;;;;;;;-148.22;100.00;64452.44;5023687;28;20108;-68
2022/07/14 05:43:31;;;;;;;3.90;1.20;;;;;;;-148.22;100.00;64452.44;5023405;28;20050;-68
2022/07/14 05:46:06;;;;;;;3.25;1.25;;;;;;;-148.22;100.00;64452.44;5025615;28;20056;-67
2022/07/14 05:48:35;;;;;;;4.32;1.17;;;;;;;-148.22;100.00;64452.44;5021335;28;20320;-67
2022/07/14 05:51:14;;;;;;;7.13;1.35;;;;;;;-148.22;100.00;64452.44;5019250;28;20504;-67
2022/07/14 05:53:45;;;;;;;2.90;1.10;;;;;;;-148.22;100.00;64452.44;5018951;28;20045;-53
2022/07/14 05:56:17;;;;;;;4.28;1.17;;;;;;;-148.22;100.00;64452.44;5025392;28;20052;-58
2022/07/14 05:58:46;;;;;;;5.13;1.15;;;;;;;-148.22;100.00;64452.44;5017593;28;20059;-57
2022/07/14 06:01:14;;;;;;;1.83;1.00;;;;;;;-148.22;100.00;64452.44;5025055;28;20059;-58
2022/07/14 06:03:40;;;;;;;3.85;1.10;;;;;;;-148.22;100.00;64452.44;5023649;28;20037;-57
2022/07/14 06:06:08;;;;;;;2.83;1.08;;;;;;;-148.22;100.00;64452.44;5026066;28;20077;-59
2022/07/14 06:08:36;;;;;;;2.90;1.23;;;;;;;-148.22;100.00;64452.44;5024263;28;20053;-57
2022/07/14 06:11:03;;;;;;;2.63;1.00;;;;;;;-148.22;100.00;64452.44;5024076;28;20136;-59
2022/07/14 06:13:31;;;;;;;3.78;1.38;;;;;;;-148.22;100.00;64452.44;5025083;28;20743;-58
2022/07/14 06:15:59;;;;;;;1.52;0.80;;;;;;;-148.22;100.00;64452.44;5024114;28;20053;-59
2022/07/14 06:18:26;;;;;;;2.83;0.80;;;;;;;-148.22;100.00;64452.44;5019883;28;20052;-60
2022/07/14 06:20:53;;;;;;;2.05;1.00;;;;;;;-148.22;100.00;64452.44;5016647;28;20219;-59
2022/07/14 06:23:23;;;;;;;2.85;1.10;;;;;;;-148.22;100.00;64452.44;5023524;28;20144;-59
2022/07/14 06:25:50;;;;;;;1.58;0.75;;;;;;;-148.22;100.00;64452.44;5024526;28;20053;-59
2022/07/14 06:28:21;;;;;;;3.50;0.95;;;;;;;-148.22;100.00;64452.44;5023015;28;20049;-58
2022/07/14 06:30:49;;;;;;;1.40;0.80;;;;;;;-148.22;100.00;64452.44;5021932;28;20048;-59
2022/07/14 06:33:16;;;;;;;1.98;1.00;;;;;;;-148.22;100.00;64452.44;5013064;28;20041;-58
2022/07/14 06:35:43;;;;;;;3.60;0.90;;;;;;;-148.22;100.00;64452.44;5018788;28;20140;-59
2022/07/14 06:38:28;;;;;;;2.25;1.02;;;;;;;-148.22;100.00;64452.44;5017337;28;20041;-58
2022/07/14 06:40:54;;;;;;;1.58;0.80;;;;;;;-148.22;100.00;64452.44;5009376;28;20572;-56
2022/07/14 06:43:22;;;;;;;5.00;0.90;;;;;;;-148.22;100.00;64452.44;5006297;28;20489;-55
2022/07/14 06:45:52;;;;;;;1.30;0.93;;;;;;;-148.22;100.00;64452.44;5012999;28;20052;-56
2022/07/14 06:48:19;;;;;;;2.55;0.90;;;;;;;-148.22;100.00;64452.44;5018385;28;20284;-52
2022/07/14 06:50:47;;;;;;;4.07;1.08;;;;;;;-148.22;100.00;64452.44;5014177;28;20444;-56
2022/07/14 06:53:14;;;;;;;4.18;0.90;;;;;;;-148.22;100.00;64452.44;5030452;28;20041;-57
2022/07/14 06:55:41;;;;;;;2.50;0.80;;;;;;;-148.22;100.00;64452.44;5030862;28;20045;-55
2022/07/14 06:58:08;;;;;;;5.90;1.00;;;;;;;-148.22;100.00;64452.44;5019138;28;20547;-55
2022/07/14 07:00:34;;;;;;;2.63;0.95;;;;;;;-148.22;100.00;64452.44;5022506;28;20060;-59
2022/07/14 07:03:01;;;;;;;1.48;0.73;;;;;;;-148.22;100.00;64452.44;5027163;28;20075;-59
2022/07/14 07:08:13;;;;;;;4.97;1.05;;;;;;;-148.22;100.00;64452.44;5031859;28;20052;-56
2022/07/14 07:10:43;;;;;;;2.30;0.80;;;;;;;-148.22;100.00;64452.44;5013285;28;20048;-55
2022/07/14 07:13:09;;;;;;;3.25;1.42;;;;;;;-148.22;100.00;64452.44;5028868;28;20053;-57
2022/07/14 07:15:37;;;;;;;1.50;0.90;;;;;;;-148.22;100.00;64452.44;5027323;28;20404;-57
2022/07/14 07:18:06;;;;;;;2.88;1.02;;;;;;;-148.22;100.00;64452.44;5037724;28;20048;-54
2022/07/14 07:20:36;;;;;;;1.88;0.80;;;;;;;-148.22;100.00;64452.44;5029294;28;20045;-58
2022/07/14 07:23:03;;;;;;;3.65;0.90;;;;;;;-148.22;100.00;64452.44;5009293;28;20053;-56
2022/07/14 07:25:30;;;;;;;1.80;1.00;;;;;;;-148.22;100.00;64452.44;5028305;28;20068;-57
2022/07/14 07:27:58;;;;;;;3.80;1.00;;;;;;;-148.22;100.00;64452.44;5022965;28;20056;-56
2022/07/14 07:30:25;;;;;;;2.55;0.80;;;;;;;-148.22;100.00;64452.44;5021847;28;20287;-57
2022/07/14 07:32:52;;;;;;;4.10;1.10;;;;;;;-148.22;100.00;64452.44;5017370;28;20052;-59
2022/07/14 07:35:19;;;;;;;2.83;1.00;;;;;;;-148.22;100.00;64452.44;5021747;28;20064;-57
2022/07/14 07:37:46;;;;;;;1.42;0.88;;;;;;;-148.22;100.00;64452.44;5021478;28;20465;-59
2022/07/14 07:40:14;;;;;;;4.63;1.55;;;;;;;-148.22;100.00;64452.44;5022856;28;20049;-57
2022/07/14 07:42:41;;;;;;;4.43;1.08;;;;;;;-148.22;100.00;64452.44;5036168;28;20131;-56
2022/07/14 07:45:08;;;;;;;3.45;1.00;;;;;;;-148.22;100.00;64452.44;5022339;28;20044;-59
2022/07/14 07:47:35;;;;;;;1.92;0.90;;;;;;;-148.22;100.00;64452.44;5021352;28;20050;-56
2022/07/14 07:50:02;;;;;;;1.75;0.90;;;;;;;-148.22;100.00;64452.44;5013975;28;20046;-56
2022/07/14 07:52:28;;;;;;;1.67;0.90;;;;;;;-148.22;100.00;64452.44;5018546;28;20068;-57
2022/07/14 07:54:55;;;;;;;2.95;0.90;;;;;;;-148.22;100.00;64452.44;5019612;28;20412;-58
2022/07/14 07:57:43;;;;;;;1.80;0.80;;;;;;;-148.22;100.00;64452.44;5022325;28;20049;-59
2022/07/14 08:00:10;;;;;;;6.22;0.88;;;;;;;-148.22;100.00;64452.44;5021138;28;20049;-59
2022/07/14 08:02:48;;;;;;;2.90;0.90;;;;;;;-148.22;100.00;64452.44;5022832;28;20045;-58
2022/07/14 08:05:16;;;;;;;1.80;0.90;;;;;;;-148.22;100.00;64452.44;5019009;28;20121;-59
2022/07/14 08:08:03;;;;;;;1.17;0.82;;;;;;;-148.22;100.00;64452.44;5014504;28;20584;-59
2022/07/14 08:10:30;;;;;;;2.30;0.90;;;;;;;-148.22;100.00;64452.44;5013372;28;20627;-57
2022/07/14 08:12:56;;;;;;;1.58;0.70;;;;;;;-148.22;100.00;64452.44;5024871;28;20053;-58
2022/07/14 08:15:24;;;;;;;2.05;0.90;;;;;;;-148.22;100.00;64452.44;5020544;28;20053;-61
2022/07/14 08:17:52;;;;;;;3.15;0.95;;;;;;;-148.22;100.00;64452.44;5041324;28;20045;-61
2022/07/14 08:20:19;;;;;;;2.10;0.70;;;;;;;-148.22;100.00;64452.44;5018810;28;20412;-57
2022/07/14 08:22:46;;;;;;;2.25;0.85;;;;;;;-148.22;100.00;64452.44;5024177;28;20069;-58
2022/07/14 08:25:13;;;;;;;1.73;0.80;;;;;;;-148.22;100.00;64452.44;5021481;28;20509;-56
2022/07/14 08:27:39;;;;;;;2.78;1.10;;;;;;;-148.22;100.00;64452.44;5031483;28;20076;-58
2022/07/14 08:30:07;;;;;;;2.55;0.90;;;;;;;-148.22;100.00;64452.44;5025998;28;20041;-59
2022/07/14 08:32:40;;;;;;;2.25;0.80;;;;;;;-148.22;100.00;64452.44;5024928;28;20124;-58
2022/07/14 08:35:10;;;;;;;4.50;1.00;;;;;;;-148.22;100.00;64452.44;5024788;28;20390;-57
2022/07/14 08:37:37;;;;;;;2.10;0.80;;;;;;;-148.22;100.00;64452.44;5026432;28;20435;-54
2022/07/14 08:40:11;;;;;;;1.38;0.90;;;;;;;-148.22;100.00;64452.44;5017105;28;20235;-58
2022/07/14 08:42:41;;;;;;;1.33;0.70;;;;;;;-148.22;100.00;64452.44;5012979;28;20488;-58
2022/07/14 08:45:10;;;;;;;1.67;0.90;;;;;;;-148.22;100.00;64452.44;5021958;28;20741;-57
2022/07/14 08:47:37;;;;;;;2.40;0.80;;;;;;;-148.22;100.00;64452.44;5020363;28;20037;-57
2022/07/14 08:50:05;;;;;;;1.42;0.80;;;;;;;-148.22;100.00;64452.44;5017243;28;20059;-57
2022/07/14 08:52:32;;;;;;;4.43;0.80;;;;;;;-148.22;100.00;64452.44;5018911;28;20048;-56
2022/07/14 08:55:00;;;;;;;1.45;0.80;;;;;;;-148.22;100.00;64452.44;5023776;28;20531;-55
2022/07/14 08:57:27;;;;;;;1.77;0.90;;;;;;;-148.22;100.00;64452.44;5022454;28;20052;-56
2022/07/14 08:59:53;;;;;;;2.08;0.70;;;;;;;-148.22;100.00;64452.44;5026331;28;20061;-57
2022/07/14 09:02:20;;;;;;;2.58;0.80;;;;;;;-148.22;100.00;64452.44;5019361;28;20045;-56
2022/07/14 09:04:48;;;;;;;1.48;0.70;;;;;;;-148.22;100.00;64452.44;5007999;28;20173;-54
2022/07/14 09:07:32;;;;;;;2.13;0.75;;;;;;;-148.22;100.00;64452.44;5021524;28;20037;-55
2022/07/14 09:10:13;;;;;;;2.55;0.75;;;;;;;-148.22;100.00;64452.44;5031795;28;20037;-55
2022/07/14 09:12:41;;;;;;;2.45;0.90;;;;;;;-148.22;100.00;64452.44;5033339;28;20124;-57
2022/07/14 09:18:12;;;;;;;1.17;0.63;;;;;;;-148.22;100.00;64452.44;5027916;28;20102;-58
2022/07/14 09:20:38;;;;;;;3.60;0.70;;;;;;;-148.22;100.00;64452.44;5022032;28;20049;-57
2022/07/14 09:23:05;;;;;;;2.65;0.90;;;;;;;-148.22;100.00;64452.44;5017100;28;20064;-56
2022/07/14 09:25:37;;;;;;;7.10;0.93;;;;;;;-148.22;100.00;64452.44;5029569;28;20420;-57
2022/07/14 09:28:05;;;;;;;2.50;0.70;;;;;;;-148.22;100.00;64452.44;5023197;28;20045;-55
2022/07/14 09:30:32;;;;;;;1.77;0.73;;;;;;;-148.22;100.00;64452.44;5019870;28;20048;-56
2022/07/14 09:33:01;;;;;;;2.67;1.00;;;;;;;-148.22;100.00;64452.44;5015418;28;20053;-55
2022/07/14 09:35:34;;;;;;;1.15;0.75;;;;;;;-148.22;100.00;64452.44;5033330;28;20049;-56
2022/07/14 09:38:17;;;;;;;2.00;0.70;;;;;;;-148.22;100.00;64452.44;5020195;28;20037;-57
2022/07/14 09:40:44;;;;;;;3.00;0.60;;;;;;;-148.22;100.00;64452.44;5016918;28;20049;-68
2022/07/14 09:43:14;;;;;;;3.00;0.90;;;;;;;-148.22;100.00;64452.44;5015658;28;20045;-68
2022/07/14 09:45:44;;;;;;;2.80;0.95;;;;;;;-148.22;100.00;64452.44;5020275;28;20037;-68
2022/07/14 09:48:18;;;;;;;3.28;0.90;;;;;;;-148.22;100.00;64452.44;5020274;28;20474;-64
2022/07/14 09:50:54;;;;;;;2.13;0.70;;;;;;;-148.22;100.00;64452.44;5022643;28;20056;-69
2022/07/14 09:53:28;;;;;;;6.70;1.08;;;;;;;-148.22;100.00;64452.44;5021210;28;20520;-65
2022/07/14 09:55:58;;;;;;;1.00;0.70;;;;;;;-148.22;100.00;64452.44;5025436;28;20528;-65
2022/07/14 09:58:31;;;;;;;2.35;0.88;;;;;;;-148.22;100.00;64452.44;5023674;28;20516;-65
2022/07/14 10:01:09;;;;;;;2.55;0.80;;;;;;;-148.22;100.00;64452.44;5024364;28;20151;-65
2022/07/14 10:03:40;;;;;;;4.85;1.00;;;;;;;-148.22;100.00;64452.44;5025836;28;20041;-67
2022/07/14 10:06:07;;;;;;;5.95;1.10;;;;;;;-148.22;100.00;64452.44;5020919;28;20068;-68
2022/07/14 10:08:57;;;;;;;2.78;1.30;;;;;;;-148.22;100.00;64452.44;5020332;28;20100;-68
2022/07/14 10:11:29;;;;;;;3.17;1.20;;;;;;;-148.22;100.00;64452.44;5025180;28;20055;-68
2022/07/14 10:13:57;;;;;;;3.03;1.75;;;;;;;-148.22;100.00;64452.44;5013960;28;20048;-67
2022/07/14 10:16:29;;;;;;;1.38;0.90;;;;;;;-148.22;100.00;64452.44;5017108;28;20526;-67
2022/07/14 10:18:56;;;;;;;6.50;1.10;;;;;;;-148.22;100.00;64452.44;5023232;28;20047;-66
2022/07/14 10:21:24;;;;;;;2.67;1.10;;;;;;;-148.22;100.00;64452.44;5021614;28;20141;-68
2022/07/14 10:23:52;;;;;;;2.90;1.00;;;;;;;-148.22;100.00;64452.44;5021925;28;20404;-70
2022/07/14 10:26:19;;;;;;;2.40;1.17;;;;;;;-148.22;100.00;64452.44;5015412;28;20502;-66
2022/07/14 10:28:46;;;;;;;3.17;1.25;;;;;;;-148.22;100.00;64452.44;5024562;28;20053;-68
2022/07/14 10:31:24;;;;;;;3.17;1.00;;;;;;;-148.22;100.00;64452.44;5017610;28;20501;-69
2022/07/14 10:34:00;;;;;;;3.20;1.20;;;;;;;-148.22;100.00;64452.44;5015965;28;20099;-65
2022/07/14 10:36:32;;;;;;;6.13;1.20;;;;;;;-148.22;100.00;64452.44;5019658;28;20153;-68
2022/07/14 10:39:08;;;;;;;2.65;1.30;;;;;;;-148.22;100.00;64452.44;5017734;28;20041;-70
2022/07/14 10:41:53;;;;;;;3.88;1.00;;;;;;;-148.22;100.00;64452.44;5014040;28;20049;-70
2022/07/14 10:44:23;;;;;;;6.68;1.08;;;;;;;-148.22;100.00;64452.44;5019845;28;20483;-64
2022/07/14 10:47:04;;;;;;;4.03;1.10;;;;;;;-148.22;100.00;64452.44;5017165;28;20331;-65
2022/07/14 10:50:00;;;;;;;4.68;1.30;;;;;;;-148.22;100.00;64452.44;5033766;28;20107;-70
2022/07/14 10:52:29;;;;;;;4.05;1.10;;;;;;;-148.22;100.00;64452.44;5019995;28;20038;-64
2022/07/14 10:55:13;;;;;;;3.50;1.20;;;;;;;-148.22;100.00;64452.44;5021392;28;20040;-64
2022/07/14 10:57:59;;;;;;;5.47;1.20;;;;;;;-148.22;100.00;64452.44;5020807;28;20044;-65
2022/07/14 11:00:56;;;;;;;5.97;1.10;;;;;;;-148.22;100.00;64452.44;5015900;28;20064;-64
2022/07/14 11:03:39;;;;;;;3.75;1.20;;;;;;;-148.22;100.00;64452.44;5014869;28;20061;-64
2022/07/14 11:06:07;;;;;;;2.63;1.20;;;;;;;-148.22;100.00;64452.44;5015820;28;20041;-64
2022/07/14 11:09:17;;;;;;;2.10;1.10;;;;;;;-148.22;100.00;64452.44;5014231;28;20057;-64
2022/07/14 11:12:10;;;;;;;8.13;1.23;;;;;;;-148.22;100.00;64452.44;5011313;28;20054;-71
2022/07/14 11:14:42;;;;;;;6.50;1.13;;;;;;;-148.22;100.00;64452.44;5018496;28;20038;-71
2022/07/14 11:17:36;;;;;;;4.05;1.08;;;;;;;-148.22;100.00;64452.44;5022131;28;20406;-71
2022/07/14 11:20:04;;;;;;;6.60;1.33;;;;;;;-148.22;100.00;64452.44;5020326;28;20038;-73
2022/07/14 11:22:31;;;;;;;3.97;1.30;;;;;;;-148.22;100.00;64452.44;5020821;28;20041;-73
2022/07/14 11:24:59;;;;;;;2.00;1.20;;;;;;;-148.22;100.00;64452.44;5017630;28;20045;-70
2022/07/14 11:27:40;;;;;;;6.35;1.20;;;;;;;-148.22;100.00;64452.44;5020725;28;20056;-68
2022/07/14 11:30:21;;;;;;;3.90;1.10;;;;;;;-148.22;100.00;64452.44;5018721;28;20045;-65